sensor_id;sensor_type;location;lat;lon;timestamp;pressure;altitude;pressure_sealevel;temperature;humidity
41703;BME280;861;48.808;9.006;2022-10-01T00:01:49;96818.44;;;10.21;78.60
41703;BME280;861;48.808;9.006;2022-10-01T00:04:37;96825.06;;;10.17;79.00
41703;BME280;861;48.808;9.006;2022-10-01T00:07:24;96816.53;;;10.29;78.37
41703;BME280;861;48.808;9.006;2022-10-01T00:10:14;96818.09;;;10.33;77.48
41703;BME280;861;48.808;9.006;2022-10-01T00:13:01;96821.19;;;10.25;78.57
41703;BME280;861;48.808;9.006;2022-10-01T00:15:47;96822.75;;;10.22;77.78
41703;BME280;861;48.808;9.006;2022-10-01T00:18:40;96816.91;;;10.24;78.44
41703;BME280;861;48.808;9.006;2022-10-01T00:21:31;96814.97;;;10.28;78.36
41703;BME280;861;48.808;9.006;2022-10-01T00:24:17;96814.59;;;10.36;78.71
41703;BME280;861;48.808;9.006;2022-10-01T00:27:04;96813.78;;;10.36;79.86
41703;BME280;861;48.808;9.006;2022-10-01T00:29:50;96811.44;;;10.17;82.08
41703;BME280;861;48.808;9.006;2022-10-01T00:32:36;96803.69;;;10.08;83.61
41703;BME280;861;48.808;9.006;2022-10-01T00:35:25;96804.41;;;9.95;84.68
41703;BME280;861;48.808;9.006;2022-10-01T00:38:11;96807.13;;;9.91;84.99
41703;BME280;861;48.808;9.006;2022-10-01T00:41:01;96804.41;;;9.91;85.51
41703;BME280;861;48.808;9.006;2022-10-01T00:43:56;96813.31;;;9.88;86.17
41703;BME280;861;48.808;9.006;2022-10-01T00:46:47;96821.13;;;9.97;85.57
41703;BME280;861;48.808;9.006;2022-10-01T00:49:37;96829.28;;;9.86;86.60
41703;BME280;861;48.808;9.006;2022-10-01T00:52:32;96836.22;;;9.80;87.27
41703;BME280;861;48.808;9.006;2022-10-01T00:55:43;96837.78;;;9.74;87.33
41703;BME280;861;48.808;9.006;2022-10-01T00:58:32;96835.84;;;9.85;86.65
41703;BME280;861;48.808;9.006;2022-10-01T01:01:19;96832.38;;;9.85;87.09
41703;BME280;861;48.808;9.006;2022-10-01T01:04:06;96828.88;;;9.84;86.80
41703;BME280;861;48.808;9.006;2022-10-01T01:07:04;96826.94;;;9.95;86.60
41703;BME280;861;48.808;9.006;2022-10-01T01:09:54;96823.44;;;9.88;86.41
41703;BME280;861;48.808;9.006;2022-10-01T01:13:15;96817.22;;;9.91;86.38
41703;BME280;861;48.808;9.006;2022-10-01T01:16:27;96815.25;;;9.81;86.64
41703;BME280;861;48.808;9.006;2022-10-01T01:19:58;96818.31;;;9.58;88.15
41703;BME280;861;48.808;9.006;2022-10-01T01:26:48;96800.03;;;9.55;88.85
41703;BME280;861;48.808;9.006;2022-10-01T01:33:10;96788.78;;;9.57;88.65
41703;BME280;861;48.808;9.006;2022-10-01T01:36:12;96784.16;;;9.71;88.03
41703;BME280;861;48.808;9.006;2022-10-01T01:39:08;96773.69;;;9.70;87.99
41703;BME280;861;48.808;9.006;2022-10-01T01:42:05;96760.09;;;9.73;87.60
41703;BME280;861;48.808;9.006;2022-10-01T01:45:00;96769.44;;;9.86;86.69
41703;BME280;861;48.808;9.006;2022-10-01T01:47:52;96761.69;;;9.85;87.24
41703;BME280;861;48.808;9.006;2022-10-01T01:50:53;96758.16;;;9.81;87.20
41703;BME280;861;48.808;9.006;2022-10-01T01:53:44;96759.34;;;9.90;86.49
41703;BME280;861;48.808;9.006;2022-10-01T01:56:31;96754.66;;;9.73;87.39
41703;BME280;861;48.808;9.006;2022-10-01T01:59:19;96745.31;;;9.71;87.52
41703;BME280;861;48.808;9.006;2022-10-01T02:02:11;96752.31;;;9.68;87.60
41703;BME280;861;48.808;9.006;2022-10-01T02:05:10;96746.50;;;9.80;86.11
41703;BME280;861;48.808;9.006;2022-10-01T02:09:09;96746.13;;;9.78;86.68
41703;BME280;861;48.808;9.006;2022-10-01T02:12:47;96740.31;;;9.90;85.22
41703;BME280;861;48.808;9.006;2022-10-01T02:16:04;96738.75;;;10.03;84.80
41703;BME280;861;48.808;9.006;2022-10-01T02:19:53;96746.53;;;10.01;84.00
41703;BME280;861;48.808;9.006;2022-10-01T02:22:55;96735.66;;;10.12;83.61
41703;BME280;861;48.808;9.006;2022-10-01T02:25:58;96727.50;;;9.94;84.63
41703;BME280;861;48.808;9.006;2022-10-01T02:28:58;96730.59;;;9.96;84.52
41703;BME280;861;48.808;9.006;2022-10-01T02:31:51;96731.34;;;9.90;85.46
41703;BME280;861;48.808;9.006;2022-10-01T02:34:43;96735.25;;;9.92;85.17
41703;BME280;861;48.808;9.006;2022-10-01T02:37:39;96730.97;;;9.77;85.61
41703;BME280;861;48.808;9.006;2022-10-01T02:40:37;96727.84;;;9.79;85.22
41703;BME280;861;48.808;9.006;2022-10-01T02:43:49;96724.41;;;9.96;84.66
41703;BME280;861;48.808;9.006;2022-10-01T02:50:06;96720.09;;;9.84;84.84
41703;BME280;861;48.808;9.006;2022-10-01T02:53:06;96712.34;;;10.00;84.31
41703;BME280;861;48.808;9.006;2022-10-01T02:56:00;96706.91;;;10.21;82.95
41703;BME280;861;48.808;9.006;2022-10-01T02:58:50;96710.81;;;10.10;83.58
41703;BME280;861;48.808;9.006;2022-10-01T03:01:38;96715.47;;;10.13;83.33
41703;BME280;861;48.808;9.006;2022-10-01T03:04:25;96706.13;;;10.14;82.52
41703;BME280;861;48.808;9.006;2022-10-01T03:07:11;96713.91;;;10.19;83.30
41703;BME280;861;48.808;9.006;2022-10-01T03:09:57;96707.31;;;10.13;83.60
41703;BME280;861;48.808;9.006;2022-10-01T03:12:44;96707.69;;;10.22;82.20
41703;BME280;861;48.808;9.006;2022-10-01T03:15:31;96709.25;;;10.12;83.29
41703;BME280;861;48.808;9.006;2022-10-01T03:18:17;96701.84;;;10.30;82.29
41703;BME280;861;48.808;9.006;2022-10-01T03:21:03;96694.47;;;10.24;81.55
41703;BME280;861;48.808;9.006;2022-10-01T03:23:49;96690.19;;;10.23;82.11
41703;BME280;861;48.808;9.006;2022-10-01T03:26:36;96695.63;;;10.05;83.12
41703;BME280;861;48.808;9.006;2022-10-01T03:29:26;96687.47;;;10.09;82.76
41703;BME280;861;48.808;9.006;2022-10-01T03:32:13;96692.91;;;9.95;82.97
41703;BME280;861;48.808;9.006;2022-10-01T03:35:01;96675.81;;;10.12;82.04
41703;BME280;861;48.808;9.006;2022-10-01T03:37:47;96683.97;;;10.12;82.64
41703;BME280;861;48.808;9.006;2022-10-01T03:40:33;96680.09;;;10.27;81.87
41703;BME280;861;48.808;9.006;2022-10-01T03:43:23;96663.38;;;10.25;81.64
41703;BME280;861;48.808;9.006;2022-10-01T03:46:10;96666.50;;;10.16;82.11
41703;BME280;861;48.808;9.006;2022-10-01T03:48:58;96653.66;;;10.24;82.04
41703;BME280;861;48.808;9.006;2022-10-01T03:51:45;96646.66;;;10.23;82.67
41703;BME280;861;48.808;9.006;2022-10-01T03:54:32;96647.38;;;10.44;80.68
41703;BME280;861;48.808;9.006;2022-10-01T03:57:18;96629.16;;;10.27;81.09
41703;BME280;861;48.808;9.006;2022-10-01T04:00:04;96642.03;;;10.16;81.55
41703;BME280;861;48.808;9.006;2022-10-01T04:02:51;96644.75;;;10.16;81.29
41703;BME280;861;48.808;9.006;2022-10-01T04:05:37;96643.94;;;10.26;80.76
41703;BME280;861;48.808;9.006;2022-10-01T04:08:24;96638.44;;;10.37;80.35
41703;BME280;861;48.808;9.006;2022-10-01T04:11:11;96635.38;;;10.24;81.10
41703;BME280;861;48.808;9.006;2022-10-01T04:13:57;96632.25;;;10.36;80.27
41703;BME280;861;48.808;9.006;2022-10-01T04:16:43;96631.53;;;10.11;81.06
41703;BME280;861;48.808;9.006;2022-10-01T04:19:30;96633.88;;;10.09;81.21
41703;BME280;861;48.808;9.006;2022-10-01T04:22:16;96638.84;;;10.35;80.43
41703;BME280;861;48.808;9.006;2022-10-01T04:25:02;96633.00;;;10.40;79.38
41703;BME280;861;48.808;9.006;2022-10-01T04:28:01;96634.22;;;10.29;81.30
41703;BME280;861;48.808;9.006;2022-10-01T04:30:52;96630.63;;;10.53;79.57
41703;BME280;861;48.808;9.006;2022-10-01T04:33:59;96628.38;;;10.27;80.56
41703;BME280;861;48.808;9.006;2022-10-01T04:36:45;96632.25;;;10.29;80.77
41703;BME280;861;48.808;9.006;2022-10-01T04:39:32;96622.94;;;10.23;80.92
41703;BME280;861;48.808;9.006;2022-10-01T04:42:19;96642.00;;;10.30;80.62
41703;BME280;861;48.808;9.006;2022-10-01T04:45:08;96634.63;;;10.20;80.93
41703;BME280;861;48.808;9.006;2022-10-01T04:47:56;96628.41;;;10.09;81.50
41703;BME280;861;48.808;9.006;2022-10-01T04:50:44;96628.03;;;10.11;81.17
41703;BME280;861;48.808;9.006;2022-10-01T04:53:30;96631.16;;;10.09;80.99
41703;BME280;861;48.808;9.006;2022-10-01T04:56:16;96641.25;;;10.19;81.24
41703;BME280;861;48.808;9.006;2022-10-01T04:59:02;96638.88;;;10.25;80.47
41703;BME280;861;48.808;9.006;2022-10-01T05:01:48;96631.09;;;10.30;80.72
41703;BME280;861;48.808;9.006;2022-10-01T05:04:35;96638.88;;;10.28;80.39
41703;BME280;861;48.808;9.006;2022-10-01T05:07:21;96630.34;;;10.19;80.33
41703;BME280;861;48.808;9.006;2022-10-01T05:10:12;96625.63;;;10.41;79.68
41703;BME280;861;48.808;9.006;2022-10-01T05:13:00;96639.31;;;10.16;80.87
41703;BME280;861;48.808;9.006;2022-10-01T05:15:50;96646.22;;;10.38;80.43
41703;BME280;861;48.808;9.006;2022-10-01T05:18:37;96641.56;;;10.46;80.25
41703;BME280;861;48.808;9.006;2022-10-01T05:21:28;96630.66;;;10.46;79.10
41703;BME280;861;48.808;9.006;2022-10-01T05:24:14;96637.59;;;10.57;78.83
41703;BME280;861;48.808;9.006;2022-10-01T05:27:00;96629.53;;;10.40;79.35
41703;BME280;861;48.808;9.006;2022-10-01T05:29:46;96622.84;;;10.55;79.49
41703;BME280;861;48.808;9.006;2022-10-01T05:32:33;96619.78;;;10.46;79.09
41703;BME280;861;48.808;9.006;2022-10-01T05:35:20;96614.69;;;10.48;79.49
41703;BME280;861;48.808;9.006;2022-10-01T05:38:06;96609.69;;;10.36;79.99
41703;BME280;861;48.808;9.006;2022-10-01T05:40:52;96609.72;;;10.25;79.91
41703;BME280;861;48.808;9.006;2022-10-01T05:43:38;96607.00;;;10.25;79.90
41703;BME280;861;48.808;9.006;2022-10-01T05:46:25;96599.88;;;10.56;78.97
41703;BME280;861;48.808;9.006;2022-10-01T05:49:11;96594.38;;;10.70;77.62
41703;BME280;861;48.808;9.006;2022-10-01T05:51:58;96602.66;;;10.42;78.70
41703;BME280;861;48.808;9.006;2022-10-01T05:54:45;96580.00;;;10.69;77.48
41703;BME280;861;48.808;9.006;2022-10-01T05:57:31;96574.25;;;10.53;78.67
41703;BME280;861;48.808;9.006;2022-10-01T06:00:17;96573.09;;;10.51;79.21
41703;BME280;861;48.808;9.006;2022-10-01T06:03:06;96559.09;;;10.52;80.29
41703;BME280;861;48.808;9.006;2022-10-01T06:05:54;96555.59;;;10.52;80.81
41703;BME280;861;48.808;9.006;2022-10-01T06:08:40;96551.28;;;10.58;80.73
41703;BME280;861;48.808;9.006;2022-10-01T06:11:28;96550.06;;;10.66;80.79
41703;BME280;861;48.808;9.006;2022-10-01T06:14:15;96546.63;;;10.55;81.17
41703;BME280;861;48.808;9.006;2022-10-01T06:17:01;96546.22;;;10.63;80.69
41703;BME280;861;48.808;9.006;2022-10-01T06:19:48;96543.16;;;10.51;82.48
41703;BME280;861;48.808;9.006;2022-10-01T06:22:36;96545.91;;;10.44;82.21
41703;BME280;861;48.808;9.006;2022-10-01T06:25:24;96543.53;;;10.49;84.08
41703;BME280;861;48.808;9.006;2022-10-01T06:28:13;96543.44;;;10.70;80.60
41703;BME280;861;48.808;9.006;2022-10-01T06:31:03;96545.03;;;10.61;80.38
41703;BME280;861;48.808;9.006;2022-10-01T06:33:50;96537.28;;;10.56;81.70
41703;BME280;861;48.808;9.006;2022-10-01T06:36:36;96541.50;;;10.67;81.73
41703;BME280;861;48.808;9.006;2022-10-01T06:39:22;96544.19;;;10.74;81.49
41703;BME280;861;48.808;9.006;2022-10-01T06:42:09;96550.72;;;10.88;78.69
41703;BME280;861;48.808;9.006;2022-10-01T06:44:55;96538.34;;;10.76;81.13
41703;BME280;861;48.808;9.006;2022-10-01T06:47:42;96532.59;;;10.63;80.63
41703;BME280;861;48.808;9.006;2022-10-01T06:50:34;96539.88;;;10.77;78.30
41703;BME280;861;48.808;9.006;2022-10-01T06:53:20;96543.03;;;10.68;81.85
41703;BME280;861;48.808;9.006;2022-10-01T06:56:07;96534.81;;;10.79;78.65
41703;BME280;861;48.808;9.006;2022-10-01T06:58:53;96542.59;;;10.80;79.41
41703;BME280;861;48.808;9.006;2022-10-01T07:01:39;96546.22;;;10.63;80.93
41703;BME280;861;48.808;9.006;2022-10-01T07:04:25;96546.59;;;10.62;81.18
41703;BME280;861;48.808;9.006;2022-10-01T07:07:11;96535.66;;;10.69;82.34
41703;BME280;861;48.808;9.006;2022-10-01T07:09:58;96533.72;;;10.69;81.60
41703;BME280;861;48.808;9.006;2022-10-01T07:12:45;96530.63;;;10.64;82.60
41703;BME280;861;48.808;9.006;2022-10-01T07:15:36;96538.13;;;10.42;84.24
41703;BME280;861;48.808;9.006;2022-10-01T07:18:23;96531.72;;;10.77;82.22
41703;BME280;861;48.808;9.006;2022-10-01T07:21:10;96523.97;;;10.72;82.10
41703;BME280;861;48.808;9.006;2022-10-01T07:23:57;96512.16;;;10.93;81.78
41703;BME280;861;48.808;9.006;2022-10-01T07:26:42;96521.34;;;10.54;84.91
41703;BME280;861;48.808;9.006;2022-10-01T07:29:30;96512.38;;;10.61;83.73
41703;BME280;861;48.808;9.006;2022-10-01T07:32:17;96518.09;;;10.77;83.50
41703;BME280;861;48.808;9.006;2022-10-01T07:35:04;96522.19;;;11.06;82.35
41703;BME280;861;48.808;9.006;2022-10-01T07:37:51;96518.78;;;10.92;82.51
41703;BME280;861;48.808;9.006;2022-10-01T07:41:48;96514.19;;;10.81;83.44
41703;BME280;861;48.808;9.006;2022-10-01T07:44:36;96522.56;;;11.08;80.85
41703;BME280;861;48.808;9.006;2022-10-01T07:47:22;96528.38;;;11.10;81.89
41703;BME280;861;48.808;9.006;2022-10-01T07:50:09;96518.66;;;11.09;83.19
41703;BME280;861;48.808;9.006;2022-10-01T07:52:57;96528.78;;;11.09;84.05
41703;BME280;861;48.808;9.006;2022-10-01T07:55:45;96535.31;;;11.18;82.21
41703;BME280;861;48.808;9.006;2022-10-01T07:58:31;96534.13;;;11.23;81.88
41703;BME280;861;48.808;9.006;2022-10-01T08:01:17;96515.44;;;11.25;83.39
41703;BME280;861;48.808;9.006;2022-10-01T08:04:05;96526.69;;;11.27;83.94
41703;BME280;861;48.808;9.006;2022-10-01T08:09:40;96519.84;;;11.05;86.22
41703;BME280;861;48.808;9.006;2022-10-01T08:12:26;96510.63;;;11.39;82.72
41703;BME280;861;48.808;9.006;2022-10-01T08:15:17;96513.94;;;11.17;85.81
41703;BME280;861;48.808;9.006;2022-10-01T08:18:04;96516.66;;;11.17;86.68
41703;BME280;861;48.808;9.006;2022-10-01T08:20:50;96527.88;;;11.22;87.04
41703;BME280;861;48.808;9.006;2022-10-01T08:23:37;96525.56;;;11.21;86.82
41703;BME280;861;48.808;9.006;2022-10-01T08:26:23;96521.63;;;11.25;85.70
41703;BME280;861;48.808;9.006;2022-10-01T08:29:09;96538.06;;;11.15;88.38
41703;BME280;861;48.808;9.006;2022-10-01T08:31:55;96546.56;;;11.24;87.86
41703;BME280;861;48.808;9.006;2022-10-01T08:34:43;96553.97;;;11.23;87.55
41703;BME280;861;48.808;9.006;2022-10-01T08:37:30;96544.59;;;11.28;88.60
41703;BME280;861;48.808;9.006;2022-10-01T08:40:20;96546.91;;;11.29;89.18
41703;BME280;861;48.808;9.006;2022-10-01T08:43:31;96547.78;;;11.19;88.97
41703;BME280;861;48.808;9.006;2022-10-01T08:46:35;96558.66;;;11.23;90.34
41703;BME280;861;48.808;9.006;2022-10-01T08:49:43;96564.88;;;11.23;90.37
41703;BME280;861;48.808;9.006;2022-10-01T08:52:53;96556.72;;;11.20;89.68
41703;BME280;861;48.808;9.006;2022-10-01T08:55:46;96576.47;;;11.34;89.66
41703;BME280;861;48.808;9.006;2022-10-01T08:58:48;96568.91;;;11.56;88.38
41703;BME280;861;48.808;9.006;2022-10-01T09:01:42;96580.69;;;11.42;89.54
41703;BME280;861;48.808;9.006;2022-10-01T09:04:28;96579.81;;;11.52;88.68
41703;BME280;861;48.808;9.006;2022-10-01T09:11:00;96588.13;;;11.35;92.85
41703;BME280;861;48.808;9.006;2022-10-01T09:17:57;96574.44;;;11.45;91.16
41703;BME280;861;48.808;9.006;2022-10-01T09:20:56;96574.88;;;11.37;92.96
41703;BME280;861;48.808;9.006;2022-10-01T09:25:54;96577.16;;;11.45;91.90
41703;BME280;861;48.808;9.006;2022-10-01T09:28:51;96581.28;;;11.13;95.21
41703;BME280;861;48.808;9.006;2022-10-01T09:31:47;96586.88;;;11.50;93.37
41703;BME280;861;48.808;9.006;2022-10-01T09:34:43;96570.53;;;11.46;93.08
41703;BME280;861;48.808;9.006;2022-10-01T09:38:32;96590.69;;;11.59;92.76
41703;BME280;861;48.808;9.006;2022-10-01T09:41:21;96579.50;;;11.47;93.02
41703;BME280;861;48.808;9.006;2022-10-01T09:44:28;96581.41;;;11.53;94.21
41703;BME280;861;48.808;9.006;2022-10-01T09:47:21;96585.88;;;11.30;95.92
41703;BME280;861;48.808;9.006;2022-10-01T09:50:21;96597.38;;;11.51;94.68
41703;BME280;861;48.808;9.006;2022-10-01T09:53:32;96588.22;;;11.28;97.14
41703;BME280;861;48.808;9.006;2022-10-01T09:56:37;96586.38;;;11.58;94.78
41703;BME280;861;48.808;9.006;2022-10-01T10:02:41;96600.34;;;11.71;94.96
41703;BME280;861;48.808;9.006;2022-10-01T10:05:45;96586.47;;;11.51;96.49
41703;BME280;861;48.808;9.006;2022-10-01T10:08:38;96595.28;;;11.69;94.84
41703;BME280;861;48.808;9.006;2022-10-01T10:11:32;96603.13;;;11.67;95.57
41703;BME280;861;48.808;9.006;2022-10-01T10:14:36;96595.28;;;11.69;94.89
41703;BME280;861;48.808;9.006;2022-10-01T10:17:26;96594.16;;;11.60;96.80
41703;BME280;861;48.808;9.006;2022-10-01T10:20:36;96584.69;;;11.78;95.81
41703;BME280;861;48.808;9.006;2022-10-01T10:23:25;96594.28;;;11.93;94.53
41703;BME280;861;48.808;9.006;2022-10-01T10:26:27;96591.56;;;11.93;94.96
41703;BME280;861;48.808;9.006;2022-10-01T10:29:46;96585.63;;;12.02;93.15
41703;BME280;861;48.808;9.006;2022-10-01T10:32:33;96588.31;;;12.05;93.54
41703;BME280;861;48.808;9.006;2022-10-01T10:35:25;96581.97;;;12.15;92.83
41703;BME280;861;48.808;9.006;2022-10-01T10:38:18;96590.97;;;12.12;94.21
41703;BME280;861;48.808;9.006;2022-10-01T10:41:12;96609.91;;;12.30;93.34
41703;BME280;861;48.808;9.006;2022-10-01T10:44:12;96602.28;;;12.48;91.21
41703;BME280;861;48.808;9.006;2022-10-01T10:47:13;96608.72;;;12.31;93.99
41703;BME280;861;48.808;9.006;2022-10-01T10:50:06;96588.59;;;12.18;94.49
41703;BME280;861;48.808;9.006;2022-10-01T10:53:26;96592.75;;;12.29;94.25
41703;BME280;861;48.808;9.006;2022-10-01T10:56:23;96582.22;;;12.62;92.48
41703;BME280;861;48.808;9.006;2022-10-01T10:59:11;96577.47;;;12.96;90.07
41703;BME280;861;48.808;9.006;2022-10-01T11:02:03;96586.28;;;13.10;89.76
41703;BME280;861;48.808;9.006;2022-10-01T11:04:54;96581.44;;;13.21;86.85
41703;BME280;861;48.808;9.006;2022-10-01T11:07:47;96588.75;;;13.01;88.97
41703;BME280;861;48.808;9.006;2022-10-01T11:11:06;96588.00;;;12.97;87.67
41703;BME280;861;48.808;9.006;2022-10-01T11:21:44;96575.38;;;12.77;88.50
41703;BME280;861;48.808;9.006;2022-10-01T11:28:43;96586.44;;;12.70;89.63
41703;BME280;861;48.808;9.006;2022-10-01T11:33:00;96577.00;;;12.74;87.81
41703;BME280;861;48.808;9.006;2022-10-01T11:36:27;96578.31;;;12.63;90.37
41703;BME280;861;48.808;9.006;2022-10-01T11:39:32;96582.19;;;12.65;88.77
41703;BME280;861;48.808;9.006;2022-10-01T11:42:33;96591.88;;;12.70;88.40
41703;BME280;861;48.808;9.006;2022-10-01T11:45:32;96600.34;;;12.79;88.59
41703;BME280;861;48.808;9.006;2022-10-01T11:48:59;96608.41;;;12.89;88.02
41703;BME280;861;48.808;9.006;2022-10-01T11:52:40;96613.31;;;12.71;89.63
41703;BME280;861;48.808;9.006;2022-10-01T11:55:44;96607.63;;;12.59;91.02
41703;BME280;861;48.808;9.006;2022-10-01T11:59:42;96616.56;;;12.59;90.52
41703;BME280;861;48.808;9.006;2022-10-01T12:02:58;96628.31;;;12.56;91.21
41703;BME280;861;48.808;9.006;2022-10-01T12:05:50;96630.13;;;12.70;90.50
41703;BME280;861;48.808;9.006;2022-10-01T12:08:45;96633.13;;;12.79;89.27
41703;BME280;861;48.808;9.006;2022-10-01T12:12:09;96631.19;;;12.79;89.59
41703;BME280;861;48.808;9.006;2022-10-01T12:15:28;96641.19;;;12.89;90.21
41703;BME280;861;48.808;9.006;2022-10-01T12:18:35;96635.78;;;12.86;90.21
41703;BME280;861;48.808;9.006;2022-10-01T12:22:14;96641.47;;;12.98;88.36
41703;BME280;861;48.808;9.006;2022-10-01T12:25:13;96650.06;;;13.00;87.98
41703;BME280;861;48.808;9.006;2022-10-01T12:28:15;96658.75;;;12.92;87.89
41703;BME280;861;48.808;9.006;2022-10-01T12:31:47;96653.56;;;13.01;87.94
41703;BME280;861;48.808;9.006;2022-10-01T12:35:25;96656.22;;;13.08;88.10
41703;BME280;861;48.808;9.006;2022-10-01T12:38:58;96659.47;;;13.26;87.48
41703;BME280;861;48.808;9.006;2022-10-01T12:45:21;96666.41;;;13.34;86.47
41703;BME280;861;48.808;9.006;2022-10-01T12:49:00;96665.69;;;13.30;87.47
41703;BME280;861;48.808;9.006;2022-10-01T13:13:34;96667.88;;;14.15;84.40
41703;BME280;861;48.808;9.006;2022-10-01T13:17:01;96671.94;;;14.07;85.68
41703;BME280;861;48.808;9.006;2022-10-01T13:23:58;96669.78;;;14.41;83.62
41703;BME280;861;48.808;9.006;2022-10-01T13:27:39;96669.53;;;14.55;83.35
41703;BME280;861;48.808;9.006;2022-10-01T13:30:58;96665.41;;;14.86;81.18
41703;BME280;861;48.808;9.006;2022-10-01T13:33:56;96661.53;;;15.03;79.11
41703;BME280;861;48.808;9.006;2022-10-01T13:36:42;96666.91;;;15.26;77.16
41703;BME280;861;48.808;9.006;2022-10-01T13:39:33;96665.81;;;15.04;78.66
41703;BME280;861;48.808;9.006;2022-10-01T13:42:41;96668.44;;;15.27;76.80
41703;BME280;861;48.808;9.006;2022-10-01T13:48:29;96671.25;;;15.07;77.42
41703;BME280;861;48.808;9.006;2022-10-01T13:51:19;96661.81;;;15.08;77.46
41703;BME280;861;48.808;9.006;2022-10-01T13:54:29;96663.69;;;15.11;76.90
41703;BME280;861;48.808;9.006;2022-10-01T13:57:33;96661.50;;;15.22;76.76
41703;BME280;861;48.808;9.006;2022-10-01T14:00:23;96653.97;;;15.26;76.03
41703;BME280;861;48.808;9.006;2022-10-01T14:04:24;96661.09;;;15.60;76.04
41703;BME280;861;48.808;9.006;2022-10-01T14:07:32;96656.47;;;15.37;76.63
41703;BME280;861;48.808;9.006;2022-10-01T14:10:40;96668.03;;;15.48;76.17
41703;BME280;861;48.808;9.006;2022-10-01T14:13:51;96667.09;;;15.55;75.32
41703;BME280;861;48.808;9.006;2022-10-01T14:16:59;96660.06;;;15.54;74.38
41703;BME280;861;48.808;9.006;2022-10-01T14:19:48;96668.22;;;15.57;75.38
41703;BME280;861;48.808;9.006;2022-10-01T14:23:07;96670.69;;;15.52;74.83
41703;BME280;861;48.808;9.006;2022-10-01T14:33:29;96663.16;;;15.72;74.46
41703;BME280;861;48.808;9.006;2022-10-01T14:36:43;96669.94;;;15.67;74.07
41703;BME280;861;48.808;9.006;2022-10-01T14:39:33;96678.53;;;15.69;74.22
41703;BME280;861;48.808;9.006;2022-10-01T14:42:19;96685.41;;;15.77;72.13
41703;BME280;861;48.808;9.006;2022-10-01T14:45:18;96696.25;;;15.49;73.23
41703;BME280;861;48.808;9.006;2022-10-01T14:48:08;96695.81;;;15.50;73.54
41703;BME280;861;48.808;9.006;2022-10-01T14:51:04;96694.25;;;15.49;74.13
41703;BME280;861;48.808;9.006;2022-10-01T14:53:58;96696.69;;;15.63;72.83
41703;BME280;861;48.808;9.006;2022-10-01T14:56:46;96705.88;;;15.57;75.06
41703;BME280;861;48.808;9.006;2022-10-01T14:59:40;96710.53;;;15.40;74.68
41703;BME280;861;48.808;9.006;2022-10-01T15:02:26;96715.50;;;15.25;76.55
41703;BME280;861;48.808;9.006;2022-10-01T15:05:30;96707.91;;;15.53;74.32
41703;BME280;861;48.808;9.006;2022-10-01T15:08:43;96707.56;;;15.31;76.03
41703;BME280;861;48.808;9.006;2022-10-01T15:11:34;96717.78;;;15.11;76.03
41703;BME280;861;48.808;9.006;2022-10-01T15:14:24;96716.16;;;15.13;75.75
41703;BME280;861;48.808;9.006;2022-10-01T15:17:23;96720.25;;;15.25;74.91
41703;BME280;861;48.808;9.006;2022-10-01T15:20:12;96716.75;;;15.44;73.83
41703;BME280;861;48.808;9.006;2022-10-01T15:22:59;96720.66;;;15.43;73.92
41703;BME280;861;48.808;9.006;2022-10-01T15:25:46;96714.88;;;15.18;74.82
41703;BME280;861;48.808;9.006;2022-10-01T15:28:35;96719.25;;;14.96;76.63
41703;BME280;861;48.808;9.006;2022-10-01T15:31:21;96733.53;;;15.07;76.42
41703;BME280;861;48.808;9.006;2022-10-01T15:34:15;96724.59;;;15.22;74.85
41703;BME280;861;48.808;9.006;2022-10-01T15:37:19;96730.94;;;15.00;76.27
41703;BME280;861;48.808;9.006;2022-10-01T15:40:32;96723.47;;;15.20;74.62
41703;BME280;861;48.808;9.006;2022-10-01T15:43:38;96719.94;;;15.19;74.91
41703;BME280;861;48.808;9.006;2022-10-01T15:46:29;96719.97;;;15.00;75.60
41703;BME280;861;48.808;9.006;2022-10-01T15:49:23;96723.19;;;15.14;75.51
41703;BME280;861;48.808;9.006;2022-10-01T15:52:16;96734.00;;;15.02;75.70
41703;BME280;861;48.808;9.006;2022-10-01T15:55:33;96735.47;;;15.06;75.55
41703;BME280;861;48.808;9.006;2022-10-01T15:58:34;96739.59;;;14.98;75.79
41703;BME280;861;48.808;9.006;2022-10-01T16:01:38;96745.97;;;14.92;76.28
41703;BME280;861;48.808;9.006;2022-10-01T16:04:25;96742.13;;;15.09;76.04
41703;BME280;861;48.808;9.006;2022-10-01T16:07:28;96758.50;;;15.12;74.72
41703;BME280;861;48.808;9.006;2022-10-01T16:10:36;96766.00;;;14.89;76.47
41703;BME280;861;48.808;9.006;2022-10-01T16:16:31;96769.19;;;15.07;74.94
41703;BME280;861;48.808;9.006;2022-10-01T16:19:30;96779.31;;;15.10;74.67
41703;BME280;861;48.808;9.006;2022-10-01T16:22:34;96781.72;;;15.08;73.85
41703;BME280;861;48.808;9.006;2022-10-01T16:25:30;96777.19;;;14.98;75.74
41703;BME280;861;48.808;9.006;2022-10-01T16:28:33;96784.78;;;15.10;74.24
41703;BME280;861;48.808;9.006;2022-10-01T16:31:20;96792.75;;;15.04;74.27
41703;BME280;861;48.808;9.006;2022-10-01T16:34:14;96792.00;;;15.00;75.61
41703;BME280;861;48.808;9.006;2022-10-01T16:37:07;96791.09;;;14.87;75.64
41703;BME280;861;48.808;9.006;2022-10-01T16:39:53;96794.63;;;14.65;76.68
41703;BME280;861;48.808;9.006;2022-10-01T16:43:21;96794.59;;;14.88;75.73
41703;BME280;861;48.808;9.006;2022-10-01T16:46:08;96793.41;;;14.66;76.53
41703;BME280;861;48.808;9.006;2022-10-01T16:48:55;96802.78;;;14.68;75.56
41703;BME280;861;48.808;9.006;2022-10-01T16:51:42;96800.09;;;14.65;76.49
41703;BME280;861;48.808;9.006;2022-10-01T16:54:28;96816.47;;;14.45;77.78
41703;BME280;861;48.808;9.006;2022-10-01T16:57:15;96816.59;;;14.61;77.03
41703;BME280;861;48.808;9.006;2022-10-01T17:00:04;96816.00;;;14.50;77.47
41703;BME280;861;48.808;9.006;2022-10-01T17:02:53;96817.00;;;14.60;76.70
41703;BME280;861;48.808;9.006;2022-10-01T17:05:41;96817.75;;;14.37;77.32
41703;BME280;861;48.808;9.006;2022-10-01T17:08:28;96833.22;;;14.51;76.74
41703;BME280;861;48.808;9.006;2022-10-01T17:11:14;96826.66;;;14.45;76.81
41703;BME280;861;48.808;9.006;2022-10-01T17:14:01;96829.09;;;14.39;77.20
41703;BME280;861;48.808;9.006;2022-10-01T17:16:50;96834.16;;;14.41;77.21
41703;BME280;861;48.808;9.006;2022-10-01T17:19:38;96840.06;;;14.62;76.75